createdAt,value
2018-08-19T00:01:31.657Z,17.40
2018-08-19T00:04:00.574Z,18.33
2018-08-19T00:06:29.551Z,18.53
2018-08-19T00:09:02.735Z,18.40
2018-08-19T00:11:31.721Z,17.73
2018-08-19T00:14:00.662Z,18.37
2018-08-19T00:16:29.616Z,19.07
2018-08-19T00:18:58.576Z,19.00
2018-08-19T00:21:27.549Z,18.23
2018-08-19T00:23:56.544Z,16.80
2018-08-19T00:26:25.464Z,18.87
2018-08-19T00:28:54.484Z,16.43
2018-08-19T00:31:23.509Z,18.43
2018-08-19T00:33:52.486Z,17.83
2018-08-19T00:36:28.923Z,17.60
2018-08-19T00:38:57.912Z,16.87
2018-08-19T00:41:26.922Z,18.47
2018-08-19T00:43:55.802Z,17.03
2018-08-19T00:46:28.580Z,16.30
2018-08-19T00:48:58.121Z,17.43
2018-08-19T00:51:27.192Z,17.43
2018-08-19T00:53:56.528Z,17.53
2018-08-19T00:56:25.544Z,17.60
2018-08-19T00:58:54.723Z,16.30
2018-08-19T01:01:35.044Z,16.90
2018-08-19T01:04:06.566Z,16.67
2018-08-19T01:06:40.993Z,17.80
2018-08-19T01:09:10.735Z,17.33
2018-08-19T01:11:41.884Z,17.60
2018-08-19T01:14:14.667Z,15.93
2018-08-19T01:16:44.662Z,17.87
2018-08-19T01:19:14.676Z,15.97
2018-08-19T01:21:43.592Z,17.47
2018-08-19T01:24:12.637Z,17.07
2018-08-19T01:26:42.435Z,16.73
2018-08-19T01:29:12.038Z,16.07
2018-08-19T01:31:41.024Z,18.20
2018-08-19T01:34:11.136Z,17.53
2018-08-19T01:36:40.076Z,17.43
2018-08-19T01:39:10.713Z,16.73
2018-08-19T01:41:40.439Z,16.53
2018-08-19T01:44:10.731Z,17.40
2018-08-19T01:46:44.973Z,16.57
2018-08-19T01:49:13.955Z,18.30
2018-08-19T01:51:43.968Z,19.13
2018-08-19T01:54:18.171Z,18.73
2018-08-19T01:56:50.603Z,17.27
2018-08-19T01:59:19.537Z,15.80
2018-08-19T02:01:50.472Z,16.43
2018-08-19T02:04:19.945Z,17.23
2018-08-19T02:06:48.884Z,17.10
2018-08-19T02:09:18.748Z,16.00
2018-08-19T02:11:49.443Z,17.30
2018-08-19T02:14:19.128Z,16.90
2018-08-19T02:16:48.892Z,15.77
2018-08-19T02:19:17.855Z,16.53
2018-08-19T02:21:47.553Z,17.07
2018-08-19T02:24:16.869Z,16.53
2018-08-19T02:26:45.776Z,16.13
2018-08-19T02:29:30.540Z,16.80
2018-08-19T02:32:01.491Z,16.50
2018-08-19T02:34:31.590Z,16.50
2018-08-19T02:37:05.783Z,18.13
2018-08-19T02:39:37.284Z,16.93
2018-08-19T02:42:22.173Z,15.77
2018-08-19T02:44:52.700Z,15.73
2018-08-19T02:47:21.729Z,17.10
2018-08-19T02:49:50.824Z,17.10
2018-08-19T02:52:36.143Z,16.17
2018-08-19T02:55:06.780Z,17.57
2018-08-19T02:57:37.925Z,17.80
2018-08-19T03:00:07.932Z,15.90
2018-08-19T03:02:38.136Z,16.23
2018-08-19T03:05:10.367Z,16.47
2018-08-19T03:07:39.283Z,17.57
2018-08-19T03:10:13.995Z,15.10
2018-08-19T03:12:43.359Z,16.03
2018-08-19T03:15:13.338Z,16.27
2018-08-19T03:17:42.860Z,16.97
2018-08-19T03:20:13.072Z,15.93
2018-08-19T03:22:42.324Z,17.23
2018-08-19T03:25:11.590Z,16.90
2018-08-19T03:27:40.543Z,18.03
2018-08-19T03:30:12.630Z,17.47
2018-08-19T03:33:13.515Z,18.30
2018-08-19T03:35:42.464Z,17.43
2018-08-19T03:38:13.253Z,18.23
2018-08-19T03:40:42.182Z,17.63
2018-08-19T03:43:11.733Z,17.43
2018-08-19T03:45:40.682Z,18.30
2018-08-19T03:48:09.624Z,18.60
2018-08-19T03:50:38.552Z,18.70
2018-08-19T03:53:07.492Z,19.20
2018-08-19T03:55:38.534Z,17.77
2018-08-19T03:58:08.675Z,18.50
2018-08-19T04:00:39.057Z,18.60
2018-08-19T04:03:27.517Z,17.83
2018-08-19T04:05:57.652Z,18.00
2018-08-19T04:08:31.496Z,20.53
2018-08-19T04:11:00.588Z,18.67
2018-08-19T04:13:39.664Z,19.77
2018-08-19T04:16:09.581Z,19.80
2018-08-19T04:18:39.830Z,19.57
2018-08-19T04:21:10.039Z,18.73
2018-08-19T04:23:41.273Z,17.47
2018-08-19T04:26:10.195Z,18.37
2018-08-19T04:28:40.136Z,18.63
2018-08-19T04:31:24.553Z,19.10
2018-08-19T04:33:54.304Z,17.93
2018-08-19T04:36:24.448Z,17.43
2018-08-19T04:38:53.363Z,17.23
2018-08-19T04:41:22.360Z,18.93
2018-08-19T04:43:51.481Z,17.93
2018-08-19T04:46:20.428Z,15.83
2018-08-19T04:48:49.467Z,16.50
2018-08-19T04:51:18.420Z,16.50
2018-08-19T04:53:47.371Z,17.63
2018-08-19T04:56:16.327Z,17.90
2018-08-19T04:58:45.332Z,17.10
2018-08-19T05:01:14.412Z,18.47
2018-08-19T05:03:44.189Z,17.30
2018-08-19T05:06:13.224Z,17.90
2018-08-19T05:08:42.252Z,18.63
2018-08-19T05:11:11.191Z,17.70
2018-08-19T05:13:40.134Z,16.77
2018-08-19T05:16:09.130Z,16.70
2018-08-19T05:18:38.102Z,17.43
2018-08-19T05:21:12.340Z,17.00
2018-08-19T05:23:41.272Z,16.17
2018-08-19T05:26:12.364Z,17.40
2018-08-19T05:28:41.348Z,17.17
2018-08-19T05:31:10.324Z,18.10
2018-08-19T05:33:41.971Z,16.17
2018-08-19T05:36:10.984Z,17.87
2018-08-19T05:38:39.923Z,17.70
2018-08-19T05:41:10.131Z,16.77
2018-08-19T05:43:39.188Z,17.37
2018-08-19T05:46:08.123Z,14.80
2018-08-19T05:48:37.071Z,17.60
2018-08-19T05:51:06.040Z,14.33
2018-08-19T05:53:35.255Z,14.50
2018-08-19T05:56:04.184Z,12.90
2018-08-19T05:58:33.160Z,13.53
2018-08-19T06:01:02.160Z,13.37
2018-08-19T06:03:31.133Z,14.40
2018-08-19T06:06:00.097Z,12.63
2018-08-19T06:08:29.106Z,13.00
2018-08-19T06:10:58.252Z,12.43
2018-08-19T06:13:28.265Z,12.47
2018-08-19T06:15:57.230Z,13.73
2018-08-19T06:18:26.208Z,12.20
2018-08-19T06:20:55.203Z,12.63
2018-08-19T06:23:24.185Z,11.57
2018-08-19T06:25:53.124Z,12.50
2018-08-19T06:28:22.056Z,11.63
2018-08-19T06:30:51.088Z,11.40
2018-08-19T06:33:20.065Z,12.00
2018-08-19T06:35:49.088Z,11.47
2018-08-19T06:38:18.004Z,10.80
2018-08-19T06:40:46.962Z,10.67
2018-08-19T06:43:15.960Z,10.40
2018-08-19T06:45:44.911Z,10.10
2018-08-19T06:48:13.926Z,10.83
2018-08-19T06:50:42.938Z,11.13
2018-08-19T06:53:17.324Z,11.20
2018-08-19T06:55:46.371Z,10.97
2018-08-19T06:58:15.443Z,10.53
2018-08-19T07:00:44.371Z,10.10
2018-08-19T07:03:13.447Z,9.87
2018-08-19T07:05:42.288Z,9.30
2018-08-19T07:08:11.345Z,10.70
2018-08-19T07:10:41.535Z,10.20
2018-08-19T07:13:13.349Z,10.30
2018-08-19T07:15:43.423Z,10.10
2018-08-19T07:18:14.810Z,8.90
2018-08-19T07:20:44.475Z,9.00
2018-08-19T07:23:13.640Z,8.13
2018-08-19T07:25:43.912Z,8.70
2018-08-19T07:28:14.085Z,9.07
2018-08-19T07:30:43.382Z,9.40
2018-08-19T07:33:12.909Z,7.80
2018-08-19T07:35:41.880Z,8.67
2018-08-19T07:38:10.897Z,8.97
2018-08-19T07:40:39.836Z,8.80
2018-08-19T07:43:08.869Z,9.53
2018-08-19T07:45:37.895Z,8.87
2018-08-19T07:48:07.072Z,9.00
2018-08-19T07:50:36.079Z,9.10
2018-08-19T07:53:05.123Z,8.00
2018-08-19T07:55:34.166Z,8.70
2018-08-19T07:58:03.109Z,8.30
2018-08-19T08:00:37.524Z,7.33
2018-08-19T08:03:07.633Z,8.10
2018-08-19T08:05:41.861Z,7.90
2018-08-19T08:08:10.837Z,7.70
2018-08-19T08:10:39.900Z,7.90
2018-08-19T08:13:09.975Z,7.17
2018-08-19T08:15:44.377Z,6.83
2018-08-19T08:18:13.880Z,7.40
2018-08-19T08:20:42.984Z,6.37
2018-08-19T08:23:18.166Z,7.87
2018-08-19T08:25:47.219Z,6.53
2018-08-19T08:28:16.179Z,6.90
2018-08-19T08:30:45.219Z,7.50
2018-08-19T08:33:14.185Z,6.70
2018-08-19T08:35:48.579Z,6.30
2018-08-19T08:38:17.550Z,7.03
2018-08-19T08:40:46.676Z,7.00
2018-08-19T08:43:15.479Z,6.80
2018-08-19T08:45:44.568Z,7.47
2018-08-19T08:48:13.548Z,7.10
2018-08-19T08:50:42.527Z,7.67
2018-08-19T08:53:11.629Z,7.93
2018-08-19T08:55:40.652Z,8.30
2018-08-19T08:58:09.641Z,7.90
2018-08-19T09:00:38.569Z,8.10
2018-08-19T09:03:07.811Z,7.17
2018-08-19T09:05:36.713Z,6.80
2018-08-19T09:08:05.671Z,8.17
2018-08-19T09:10:34.665Z,6.83
2018-08-19T09:13:03.704Z,7.90
2018-08-19T09:15:32.728Z,7.57
2018-08-19T09:18:01.738Z,7.20
2018-08-19T09:20:30.680Z,7.57
2018-08-19T09:22:59.662Z,7.63
2018-08-19T09:25:28.634Z,8.07
2018-08-19T09:27:57.640Z,7.60
2018-08-19T09:30:35.464Z,8.00
2018-08-19T09:33:04.602Z,7.77
2018-08-19T09:35:34.784Z,8.20
2018-08-19T09:38:10.144Z,8.63
2018-08-19T09:40:39.134Z,7.90
2018-08-19T09:43:08.895Z,7.97
2018-08-19T09:45:38.156Z,7.63
2018-08-19T09:48:07.708Z,6.83
2018-08-19T09:50:37.552Z,8.60
2018-08-19T09:53:06.520Z,7.73
2018-08-19T09:55:41.296Z,7.40
2018-08-19T09:58:12.130Z,8.13
2018-08-19T10:00:46.644Z,8.07
2018-08-19T10:03:15.715Z,7.63
2018-08-19T10:05:44.649Z,7.87
2018-08-19T10:08:13.557Z,7.70
2018-08-19T10:10:42.468Z,8.00
2018-08-19T10:13:11.472Z,8.70
2018-08-19T10:15:41.025Z,7.80
2018-08-19T10:18:10.003Z,7.50
2018-08-19T10:20:38.987Z,9.10
2018-08-19T10:23:08.263Z,8.50
2018-08-19T10:25:37.248Z,8.57
2018-08-19T10:28:06.399Z,8.33
2018-08-19T10:30:38.139Z,8.57
2018-08-19T10:33:09.025Z,8.33
2018-08-19T10:35:38.094Z,9.17
2018-08-19T10:38:07.000Z,8.87
2018-08-19T10:40:35.946Z,9.10
2018-08-19T10:43:07.130Z,8.47
2018-08-19T10:45:39.855Z,8.70
2018-08-19T10:48:11.077Z,8.93
2018-08-19T10:50:40.151Z,9.57
2018-08-19T10:53:15.553Z,9.27
2018-08-19T10:55:45.269Z,9.17
2018-08-19T10:58:14.288Z,8.37
2018-08-19T11:00:43.236Z,7.83
2018-08-19T11:03:16.469Z,9.00
2018-08-19T11:05:46.412Z,9.33
2018-08-19T11:08:15.476Z,9.80
2018-08-19T11:10:44.469Z,8.87
2018-08-19T11:13:17.028Z,9.30
2018-08-19T11:16:01.042Z,10.20
2018-08-19T11:18:41.232Z,9.70
2018-08-19T11:21:14.865Z,10.00
2018-08-19T11:23:46.016Z,8.97
2018-08-19T11:26:15.146Z,8.80
2018-08-19T11:28:46.057Z,9.57
2018-08-19T11:31:21.657Z,9.43
2018-08-19T11:33:51.457Z,10.90
2018-08-19T11:36:21.874Z,10.13
2018-08-19T11:38:53.097Z,10.50
2018-08-19T11:41:22.027Z,11.00
2018-08-19T11:43:51.320Z,9.30
2018-08-19T11:46:20.475Z,9.77
2018-08-19T11:48:54.815Z,9.73
2018-08-19T11:51:39.314Z,10.20
2018-08-19T11:54:09.139Z,8.57
2018-08-19T11:56:38.112Z,9.30
2018-08-19T11:59:07.384Z,10.30
2018-08-19T12:01:36.400Z,10.07
2018-08-19T12:04:09.408Z,8.03
2018-08-19T12:06:38.364Z,8.50
2018-08-19T12:09:08.947Z,9.20
2018-08-19T12:11:39.243Z,8.90
2018-08-19T12:14:09.996Z,9.20
2018-08-19T12:16:46.232Z,9.00
2018-08-19T12:19:19.247Z,9.60
2018-08-19T12:21:54.463Z,9.30
2018-08-19T12:24:33.789Z,8.97
2018-08-19T12:27:03.870Z,10.10
2018-08-19T12:29:34.045Z,9.00
2018-08-19T12:32:09.714Z,8.80
2018-08-19T12:34:40.020Z,9.57
2018-08-19T12:37:11.129Z,9.93
2018-08-19T12:39:40.606Z,9.73
2018-08-19T12:42:10.580Z,8.90
2018-08-19T12:44:39.942Z,8.80
2018-08-19T12:47:17.136Z,9.50
2018-08-19T12:49:49.852Z,8.93
2018-08-19T12:52:20.904Z,10.00
2018-08-19T12:55:01.968Z,9.70
2018-08-19T12:57:31.221Z,10.30
2018-08-19T13:00:06.627Z,9.67
2018-08-19T13:02:42.246Z,9.80
2018-08-19T13:05:11.540Z,10.10
2018-08-19T13:07:40.894Z,9.27
2018-08-19T13:10:09.952Z,10.33
2018-08-19T13:12:58.313Z,10.10
2018-08-19T13:15:29.505Z,8.80
2018-08-19T13:17:58.741Z,9.60
2018-08-19T13:20:28.668Z,9.63
2018-08-19T13:23:03.992Z,9.13
2018-08-19T13:25:33.320Z,8.70
2018-08-19T13:28:02.398Z,9.60
2018-08-19T13:30:31.387Z,9.57
2018-08-19T13:33:00.668Z,10.40
2018-08-19T13:35:29.728Z,9.60
2018-08-19T13:37:58.673Z,9.30
2018-08-19T13:40:27.745Z,9.70
2018-08-19T13:42:56.816Z,9.77
2018-08-19T13:45:26.914Z,9.57
2018-08-19T13:47:55.888Z,9.10
2018-08-19T13:50:24.967Z,9.00
2018-08-19T13:52:53.988Z,9.60
2018-08-19T13:55:23.017Z,10.90
2018-08-19T13:57:52.073Z,10.00
2018-08-19T14:00:22.787Z,9.77
2018-08-19T14:02:52.121Z,9.67
2018-08-19T14:05:21.115Z,9.30
2018-08-19T14:07:50.120Z,9.57
2018-08-19T14:10:19.091Z,9.43
2018-08-19T14:12:48.121Z,10.23
2018-08-19T14:15:17.054Z,11.40
2018-08-19T14:17:46.120Z,9.03
2018-08-19T14:20:15.198Z,9.90
2018-08-19T14:22:44.170Z,10.43
2018-08-19T14:25:13.140Z,10.57
2018-08-19T14:27:42.175Z,9.20
2018-08-19T14:30:12.261Z,9.90
2018-08-19T14:32:43.541Z,9.03
2018-08-19T14:35:12.495Z,9.67
2018-08-19T14:37:41.668Z,10.23
2018-08-19T14:40:14.863Z,10.73
2018-08-19T14:42:44.016Z,9.10
2018-08-19T14:45:13.179Z,10.10
2018-08-19T14:47:42.232Z,10.77
2018-08-19T14:50:13.652Z,10.60
2018-08-19T14:52:42.698Z,10.30
2018-08-19T14:55:11.719Z,9.97
2018-08-19T14:57:40.720Z,9.80
2018-08-19T15:00:11.668Z,10.10
2018-08-19T15:02:40.988Z,10.03
2018-08-19T15:05:14.260Z,10.20
2018-08-19T15:07:43.293Z,10.27
2018-08-19T15:10:17.229Z,10.90
2018-08-19T15:12:46.296Z,11.30
2018-08-19T15:15:15.212Z,10.10
2018-08-19T15:17:51.410Z,10.70
2018-08-19T15:20:26.650Z,9.57
2018-08-19T15:23:16.624Z,10.00
2018-08-19T15:25:45.850Z,10.17
2018-08-19T15:28:15.103Z,10.23
2018-08-19T15:30:44.135Z,10.40
2018-08-19T15:33:15.571Z,8.90
2018-08-19T15:35:44.710Z,9.40
2018-08-19T15:38:13.754Z,9.27
2018-08-19T15:40:45.777Z,9.37
2018-08-19T15:43:15.116Z,9.50
2018-08-19T15:45:44.652Z,10.50
2018-08-19T15:48:13.650Z,8.90
2018-08-19T15:50:42.607Z,9.50
2018-08-19T15:53:11.636Z,8.83
2018-08-19T15:55:41.106Z,10.17
2018-08-19T15:58:10.179Z,9.23
2018-08-19T16:00:41.341Z,8.73
2018-08-19T16:03:11.298Z,8.50
2018-08-19T16:05:40.334Z,8.40
2018-08-19T16:08:09.441Z,7.60
2018-08-19T16:10:38.628Z,6.50
2018-08-19T16:13:09.327Z,7.23
2018-08-19T16:15:38.405Z,6.57
2018-08-19T16:18:08.040Z,8.30
2018-08-19T16:20:37.268Z,7.60
2018-08-19T16:23:06.444Z,8.03
2018-08-19T16:25:35.535Z,7.83
2018-08-19T16:28:05.585Z,6.90
2018-08-19T16:30:34.616Z,7.60
2018-08-19T16:33:04.294Z,6.83
2018-08-19T16:35:33.377Z,7.10
2018-08-19T16:38:02.608Z,6.40
2018-08-19T16:40:31.931Z,6.83
2018-08-19T16:43:00.938Z,7.00
2018-08-19T16:45:30.074Z,6.53
2018-08-19T16:47:59.141Z,6.03
2018-08-19T16:50:28.554Z,6.47
2018-08-19T16:52:57.480Z,6.90
2018-08-19T16:55:26.546Z,7.20
2018-08-19T16:57:55.518Z,7.43
2018-08-19T17:00:24.541Z,6.33
2018-08-19T17:02:53.677Z,7.17
2018-08-19T17:05:31.335Z,6.57
2018-08-19T17:08:00.389Z,7.40
2018-08-19T17:10:29.972Z,7.47
2018-08-19T17:12:59.097Z,7.87
2018-08-19T17:15:28.399Z,7.37
2018-08-19T17:17:57.512Z,7.90
2018-08-19T17:20:27.636Z,7.87
2018-08-19T17:22:56.572Z,7.63
2018-08-19T17:25:25.563Z,8.10
2018-08-19T17:27:54.483Z,8.43
2018-08-19T17:30:23.504Z,8.87
2018-08-19T17:32:57.143Z,8.20
2018-08-19T17:35:26.110Z,8.20
2018-08-19T17:37:55.147Z,8.40
2018-08-19T17:40:24.204Z,8.67
2018-08-19T17:42:53.355Z,8.50
2018-08-19T17:45:22.401Z,9.07
2018-08-19T17:47:51.436Z,7.83
2018-08-19T17:50:24.671Z,8.23
2018-08-19T17:52:54.780Z,9.40
2018-08-19T17:55:24.294Z,9.73
2018-08-19T17:57:53.608Z,8.80
2018-08-19T18:00:23.042Z,9.50
2018-08-19T18:02:52.416Z,10.00
2018-08-19T18:05:21.612Z,9.20
2018-08-19T18:07:53.878Z,8.97
2018-08-19T18:10:22.904Z,10.27
2018-08-19T18:12:52.245Z,8.90
2018-08-19T18:15:21.252Z,9.47
2018-08-19T18:17:58.423Z,11.10
2018-08-19T18:20:32.514Z,11.03
2018-08-19T18:23:01.516Z,10.70
2018-08-19T18:25:30.930Z,11.30
2018-08-19T18:28:04.752Z,10.80
2018-08-19T18:30:33.763Z,11.00
2018-08-19T18:33:04.187Z,11.33
2018-08-19T18:35:33.351Z,11.60
2018-08-19T18:38:02.360Z,11.80
2018-08-19T18:40:33.403Z,12.20
2018-08-19T18:43:02.835Z,12.50
2018-08-19T18:45:31.740Z,12.13
2018-08-19T18:48:01.797Z,12.33
2018-08-19T18:50:30.884Z,11.90
2018-08-19T18:52:59.905Z,11.90
2018-08-19T18:55:29.088Z,12.70
2018-08-19T18:57:58.035Z,12.93
2018-08-19T19:00:27.759Z,11.27
2018-08-19T19:03:01.190Z,11.33
2018-08-19T19:05:36.376Z,12.60
2018-08-19T19:08:11.332Z,11.77
2018-08-19T19:10:43.580Z,13.23
2018-08-19T19:13:12.603Z,12.70
2018-08-19T19:15:41.634Z,13.13
2018-08-19T19:18:12.077Z,13.10
2018-08-19T19:21:14.436Z,14.63
2018-08-19T19:23:44.225Z,13.93
2018-08-19T19:26:13.196Z,15.30
2018-08-19T19:28:42.223Z,14.80
2018-08-19T19:31:12.160Z,14.53
2018-08-19T19:33:41.112Z,14.50
2018-08-19T19:36:15.803Z,14.50
2018-08-19T19:39:02.089Z,16.00
2018-08-19T19:41:32.480Z,15.30
2018-08-19T19:44:20.024Z,14.67
2018-08-19T19:46:49.027Z,14.60
2018-08-19T19:49:17.977Z,15.50
2018-08-19T19:52:04.435Z,15.23
2018-08-19T19:54:34.280Z,16.30
2018-08-19T19:57:03.267Z,14.43
2018-08-19T19:59:33.714Z,14.87
2018-08-19T20:02:02.735Z,16.87
2018-08-19T20:04:34.652Z,13.87
2018-08-19T20:07:03.723Z,15.60
2018-08-19T20:09:34.971Z,16.10
2018-08-19T20:12:04.083Z,15.90
2018-08-19T20:14:37.372Z,15.80
2018-08-19T20:17:06.549Z,15.13
2018-08-19T20:19:35.560Z,15.73
2018-08-19T20:22:04.556Z,14.83
2018-08-19T20:24:33.588Z,15.20
2018-08-19T20:27:02.575Z,14.47
2018-08-19T20:29:31.864Z,13.97
2018-08-19T20:32:00.840Z,15.23
2018-08-19T20:34:29.850Z,14.30
2018-08-19T20:36:58.876Z,14.27
2018-08-19T20:39:27.921Z,13.77
2018-08-19T20:41:57.082Z,14.50
2018-08-19T20:44:26.056Z,13.00
2018-08-19T20:46:57.505Z,14.10
2018-08-19T20:49:27.416Z,15.30
2018-08-19T20:51:56.612Z,14.00
2018-08-19T20:54:25.596Z,15.70
2018-08-19T20:56:54.613Z,14.97
2018-08-19T20:59:29.012Z,15.17
2018-08-19T21:01:58.003Z,14.40
2018-08-19T21:04:27.028Z,14.13
2018-08-19T21:06:55.988Z,13.93
2018-08-19T21:09:25.015Z,15.37
2018-08-19T21:11:53.964Z,15.13
2018-08-19T21:14:23.013Z,15.83
2018-08-19T21:16:52.010Z,14.77
2018-08-19T21:19:21.343Z,14.30
2018-08-19T21:21:50.379Z,13.97
2018-08-19T21:24:19.348Z,14.20
2018-08-19T21:26:56.500Z,14.20
2018-08-19T21:29:25.535Z,14.40
2018-08-19T21:31:54.520Z,14.70
2018-08-19T21:34:23.620Z,13.80
2018-08-19T21:36:52.618Z,13.40
2018-08-19T21:39:21.619Z,13.80
2018-08-19T21:41:52.040Z,14.63
2018-08-19T21:44:20.980Z,14.27
2018-08-19T21:46:49.917Z,13.30
2018-08-19T21:49:18.820Z,13.97
2018-08-19T21:51:47.755Z,13.70
2018-08-19T21:54:17.575Z,13.53
2018-08-19T21:56:46.592Z,14.63
2018-08-19T21:59:22.576Z,13.70
2018-08-19T22:01:52.603Z,14.77
2018-08-19T22:04:22.900Z,14.03
2018-08-19T22:06:51.896Z,14.60
2018-08-19T22:09:36.779Z,14.07
2018-08-19T22:12:07.593Z,13.93
2018-08-19T22:14:36.523Z,14.97
2018-08-19T22:17:09.665Z,13.47
2018-08-19T22:19:39.103Z,14.67
2018-08-19T22:22:08.277Z,13.70
2018-08-19T22:24:37.411Z,13.47
2018-08-19T22:27:11.716Z,12.67
2018-08-19T22:29:40.653Z,15.17
2018-08-19T22:32:09.598Z,14.50
2018-08-19T22:34:38.580Z,14.50
2018-08-19T22:37:07.556Z,13.60
2018-08-19T22:39:36.477Z,13.90
2018-08-19T22:42:05.458Z,14.00
2018-08-19T22:44:34.439Z,15.53
2018-08-19T22:47:03.501Z,13.23
2018-08-19T22:49:32.441Z,14.27
2018-08-19T22:52:16.984Z,14.10
2018-08-19T22:54:45.950Z,13.83
2018-08-19T22:57:14.980Z,13.20
2018-08-19T22:59:43.923Z,13.70
2018-08-19T23:02:14.589Z,13.83
2018-08-19T23:04:43.896Z,13.33
2018-08-19T23:07:12.903Z,12.93
2018-08-19T23:09:41.935Z,13.00
2018-08-19T23:12:10.899Z,13.67
2018-08-19T23:14:51.343Z,14.23
2018-08-19T23:17:20.420Z,12.77
2018-08-19T23:19:49.985Z,13.13
2018-08-19T23:22:18.960Z,13.40
2018-08-19T23:24:48.140Z,13.27
2018-08-19T23:27:17.120Z,13.23
2018-08-19T23:29:46.173Z,12.40
2018-08-19T23:32:15.108Z,12.73
2018-08-19T23:34:44.104Z,13.10
2018-08-19T23:37:13.123Z,12.17
2018-08-19T23:39:42.075Z,11.40
2018-08-19T23:42:11.095Z,13.60
2018-08-19T23:44:40.090Z,12.37
2018-08-19T23:47:09.095Z,11.43
2018-08-19T23:49:38.077Z,13.10
2018-08-19T23:52:07.032Z,11.63
2018-08-19T23:54:35.975Z,12.50
2018-08-19T23:57:04.915Z,13.17
2018-08-19T23:59:35.355Z,12.50
